• Join FlightAware (Why Join?)
  • Login
  • US Flag 
03:20AM EDT


 

Airport Tracker/Info


-or-


 

Live Flight TrackerFlight Track Log ✈ RPA3351 ✈ 24-Jul-2013 ✈ KDCA - KOMA

Flight Track Log - Related Links

Times and Time Zones

All times are in EDT time to prevent confusion due to time zone crossing. See the RPA3351 flight status page for this flight to view local times or setup timezone preferences in your user account.

Time Position Orientation Groundspeed Altitude Reporting Facility
EDT Latitude Longitude Course Direction KTS MPH feet Rate Location/Type
02:41PM 38.8833 -77.0667 274° West 168 193 1,700  Level Potomac TRACON
02:42PM 38.9333 -77.1167 322° Northwest 223 257 3,300 1,860 Climbing Potomac TRACON
02:43PM 38.9224 -77.4448 303° West  Level FlightAware Approximate
02:43PM 38.9833 -77.1667 322° Northwest 263 303 5,500  Level Potomac TRACON
02:44PM 38.9333 -77.5878 270° West  Level FlightAware Approximate
02:44PM 39.0333 -77.2333 314° West 274 315 8,000  Level Potomac TRACON
02:45PM 38.9333 -77.7349 270° West  Level FlightAware Approximate
02:45PM 39.0333 -77.3333 270° West 269 310 10,400  Level Potomac TRACON
02:46PM 38.9392 -77.8818 274° West  Level FlightAware Approximate
02:47PM 39.0158 -77.5847 265° West 342 394 13,500  Level Washington Center
02:48PM 39.0056 -77.6939 263° West 347 399 15,200 1,620 Climbing Washington Center
02:49PM 38.9947 -77.8272 264° West 347 399 16,800 1,380 Climbing Washington Center
02:50PM 38.9819 -77.9522 263° West 347 399 18,100 1,200 Climbing Washington Center
02:51PM 38.9711 -78.0800 264° West 352 405 19,300 1,200 Climbing Washington Center
02:52PM 38.9600 -78.2106 264° West 359 413 20,600 1,260 Climbing Washington Center
02:53PM 38.9633 -78.3414 272° West 365 420 21,900 1,080 Climbing Washington Center
02:54PM 38.9686 -78.4725 273° West 365 420 22,800 840 Climbing Washington Center
02:55PM 38.9736 -78.6061 273° West 365 420 23,600 840 Climbing Washington Center
02:56PM 38.9764 -78.7450 272° West 370 426 24,600 900 Climbing Washington Center
02:57PM 38.9789 -78.8842 271° West 384 442 25,500 900 Climbing Washington Center
02:58PM 38.9814 -79.0178 271° West 384 442 26,500 960 Climbing Washington Center
02:59PM 38.9856 -79.1569 272° West 384 442 27,500 840 Climbing Washington Center
03:00PM 38.9897 -79.2986 272° West 389 448 28,200 840 Climbing Washington Center
03:01PM 38.9914 -79.4403 271° West 389 448 29,300 960 Climbing Washington Center
03:02PM 38.9953 -79.5819 272° West 394 453 30,200 960 Climbing Washington Center
03:03PM 39.0006 -79.7292 273° West 407 468 31,200 960 Climbing Washington Center
03:04PM 39.0019 -79.8708 271° West 407 468 32,200 900 Climbing Washington Center
03:05PM 39.0058 -79.9967 272° West 407 468 33,100 900 Climbing Washington Center
03:06PM 39.0069 -80.1356 271° West 402 463 34,100 900 Climbing Washington Center
03:08PM 39.0081 -80.3269 270° West 380 437 35,500 720 Climbing Indianapolis Center
03:09PM 39.0350 -80.4811 283° West 377 434 36,000 240 Climbing Indianapolis Center
03:10PM 39.0661 -80.6133 287° West 384 442 36,000  Level Indianapolis Center
03:11PM 39.1019 -80.7489 289° West 399 459 36,000  Level Indianapolis Center
03:12PM 39.1353 -80.8856 287° West 401 461 36,000  Level Indianapolis Center
03:13PM 39.1689 -81.0211 288° West 402 463 36,000  Level Indianapolis Center
03:14PM 39.2092 -81.1869 287° West 406 467 36,000  Level Indianapolis Center
03:15PM 39.2428 -81.3261 287° West 409 471 36,000  Level Indianapolis Center
03:16PM 39.2758 -81.4650 287° West 410 472 36,000  Level Indianapolis Center
03:17PM 39.3094 -81.6050 287° West 411 473 36,000  Level Indianapolis Center
03:18PM 39.3422 -81.7442 287° West 408 470 36,000  Level Indianapolis Center
03:19PM 39.3764 -81.8831 288° West 408 470 36,000  Level Indianapolis Center
03:20PM 39.4153 -82.0514 287° West 407 468 36,000  Level Indianapolis Center
03:21PM 39.4461 -82.1864 287° West 408 470 36,000  Level Indianapolis Center
03:22PM 39.4778 -82.3267 286° West 404 465 36,000  Level Indianapolis Center
03:23PM 39.5092 -82.4686 286° West 406 467 36,000  Level Indianapolis Center
03:24PM 39.5453 -82.6347 286° West 407 468 36,000  Level Indianapolis Center
03:25PM 39.5747 -82.7792 285° West 410 472 36,000  Level Indianapolis Center
03:26PM 39.6061 -82.9244 286° West 412 474 36,000  Level Indianapolis Center
03:28PM 39.6278 -83.0708 281° West 410 472 36,000  Level Indianapolis Center
03:29PM 39.6383 -83.2206 275° West 411 473 36,000  Level Indianapolis Center
03:30PM 39.6478 -83.3706 275° West 409 471 36,000  Level Indianapolis Center
03:31PM 39.6594 -83.5219 276° West 411 473 36,000  Level Indianapolis Center
03:32PM 39.6850 -83.6697 283° West 410 472 36,000  Level Indianapolis Center
03:33PM 39.7181 -83.8133 287° West 408 470 36,000  Level Indianapolis Center
03:34PM 39.7506 -83.9567 286° West 408 470 36,000  Level Indianapolis Center
03:35PM 39.7892 -84.1222 287° West 406 467 36,000  Level Indianapolis Center
03:36PM 39.8222 -84.2656 287° West 409 471 36,000  Level Indianapolis Center
03:37PM 39.8553 -84.4097 287° West 411 473 36,000  Level Indianapolis Center
03:38PM 39.8881 -84.5531 287° West 410 472 36,000  Level Indianapolis Center
03:39PM 39.9103 -84.6997 281° West 411 473 36,000  Level Indianapolis Center
03:40PM 39.9258 -84.8483 278° West 411 473 36,000  Level Indianapolis Center
03:41PM 39.9436 -84.9978 279° West 413 475 36,000  Level Indianapolis Center
03:42PM 39.9589 -85.1442 278° West 411 473 36,000  Level Indianapolis Center
03:43PM 39.9792 -85.3208 279° West 413 475 36,000  Level Indianapolis Center
03:44PM 39.9958 -85.4694 278° West 416 479 36,000  Level Indianapolis Center
03:45PM 40.0111 -85.6150 278° West 411 473 36,000  Level Indianapolis Center
03:46PM 40.0275 -85.7625 278° West 413 475 36,000  Level Indianapolis Center
03:47PM 40.0431 -85.9100 278° West 415 478 36,000  Level Indianapolis Center
03:48PM 40.0619 -86.0875 278° West 416 479 36,000  Level Indianapolis Center
03:49PM 40.0767 -86.2369 277° West 419 482 36,000  Level Indianapolis Center
03:50PM 40.0908 -86.3844 277° West 418 481 36,000  Level Indianapolis Center
03:51PM 40.1056 -86.5314 278° West 415 478 36,000  Level Indianapolis Center
03:52PM 40.1200 -86.6789 277° West 414 476 36,000  Level Indianapolis Center
03:53PM 40.1314 -86.7972 277° West 415 478 36,000  Level Chicago Center
03:54PM 40.1461 -86.9450 277° West 413 475 36,000  Level Chicago Center
03:55PM 40.1603 -87.0933 277° West 413 475 36,000  Level Chicago Center
03:56PM 40.1758 -87.2717 277° West 414 476 36,000  Level Chicago Center
03:57PM 40.1894 -87.4183 277° West 412 474 36,000  Level Chicago Center
03:58PM 40.2044 -87.5792 277° West 408 470 36,000  Level Chicago Center
03:59PM 40.2178 -87.7278 277° West 411 473 36,000  Level Chicago Center
04:00PM 40.2303 -87.8750 276° West 409 471 36,000  Level Chicago Center
04:01PM 40.2436 -88.0217 277° West 408 470 36,000  Level Chicago Center
04:02PM 40.2553 -88.1689 276° West 410 472 36,000  Level Chicago Center
04:03PM 40.2681 -88.3172 276° West 412 474 36,000  Level Chicago Center
04:04PM 40.2828 -88.4956 276° West 413 475 36,000  Level Chicago Center
04:05PM 40.2947 -88.6386 276° West 414 476 36,000  Level Chicago Center
04:06PM 40.3061 -88.7878 276° West 413 475 36,000  Level Chicago Center
04:08PM 40.3181 -88.9356 276° West 410 472 36,000  Level Chicago Center
04:09PM 40.3286 -89.0825 275° West 406 467 36,000  Level Chicago Center
04:10PM 40.3406 -89.2622 275° West 412 474 36,000  Level Chicago Center
04:11PM 40.3517 -89.4092 276° West 406 467 36,000  Level Chicago Center
04:11PM 40.3589 -89.4972 276° West 407 468 36,000  Level Kansas City Center
04:12PM 40.3692 -89.6472 275° West 409 471 36,000  Level Kansas City Center
04:13PM 40.3797 -89.7989 275° West 412 474 36,000  Level Kansas City Center
04:14PM 40.3908 -89.9506 276° West 413 475 36,000  Level Kansas City Center
04:15PM 40.3978 -90.0406 276° West 413 475 36,000  Level Chicago Center
04:16PM 40.4081 -90.1911 275° West 412 474 36,000  Level Chicago Center
04:17PM 40.4175 -90.3417 275° West 413 475 36,000  Level Chicago Center
04:18PM 40.4294 -90.5189 275° West 406 467 36,000  Level Chicago Center
04:19PM 40.4386 -90.6667 275° West 405 466 36,000  Level Chicago Center
04:20PM 40.4475 -90.8128 275° West 403 464 36,000  Level Chicago Center
04:21PM 40.4556 -90.9603 274° West 405 466 36,000  Level Chicago Center
04:22PM 40.4644 -91.1081 275° West 406 467 36,000  Level Chicago Center
04:23PM 40.4725 -91.2553 274° West 405 466 36,000  Level Chicago Center
04:24PM 40.4825 -91.4058 275° West 403 464 36,000  Level Chicago Center
04:25PM 40.4917 -91.5800 274° West 403 464 36,000  Level Chicago Center
04:26PM 40.4997 -91.7242 274° West 403 464 36,000  Level Chicago Center
04:27PM 40.5075 -91.8689 274° West 400 460 36,000  Level Chicago Center
04:28PM 40.5144 -92.0153 274° West 405 466 36,000  Level Chicago Center
04:29PM 40.5219 -92.1606 274° West 404 465 36,000 -60 Level Chicago Center
04:30PM 40.5308 -92.3350 274° West 405 466 35,900 -540 Descending Chicago Center
04:32PM 40.5378 -92.4786 274° West 403 464 34,900 -960 Descending Chicago Center
04:33PM 40.5442 -92.6244 273° West 407 468 34,000 -480 Descending Chicago Center
04:34PM 40.5511 -92.8008 273° West 412 474 34,000  Level Chicago Center
04:35PM 40.5575 -92.9494 273° West 414 476 34,000  Level Chicago Center
04:36PM 40.5631 -93.0989 273° West 415 478 34,000  Level Chicago Center
04:36PM 40.5697 -93.2178 274° West 415 478 34,000  Level Kansas City Center
04:37PM 40.5747 -93.3667 273° West 413 475 34,000  Level Kansas City Center
04:39PM 40.5800 -93.5167 273° West 415 478 34,000  Level Kansas City Center
04:40PM 40.5867 -93.6944 273° West 412 474 34,000  Level Kansas City Center
04:40PM 40.5883 -93.7844 271° West 411 473 34,000  Level Minneapolis Center
04:41PM 40.5939 -93.9331 273° West 412 474 34,000  Level Minneapolis Center
04:42PM 40.6161 -94.1064 280° West 406 467 34,000 -1,020 Level Minneapolis Center
04:43PM 40.6397 -94.2456 283° West 396 456 31,900 -2,340 Descending Minneapolis Center
04:44PM 40.6625 -94.3858 282° West 394 453 29,200 -2,640 Descending Minneapolis Center
04:45PM 40.6881 -94.5297 283° West 403 464 26,500 -2,760 Descending Minneapolis Center
04:46PM 40.7131 -94.6928 281° West 390 449 23,500 -2,760 Descending Minneapolis Center
04:48PM 40.7367 -94.8267 283° West 379 436 20,900 -2,580 Descending Minneapolis Center
04:48PM 40.7692 -94.9364 291° West 371 427 18,700 -2,580 Descending Minneapolis Center
04:49PM 40.7800 -95.0258 279° West 365 420 17,000 -2,220 Descending Minneapolis Center
04:50PM 40.7794 -95.0894 269° West 369 425 16,000 -2,280 Descending Minneapolis Center
04:51PM 40.8392 -95.1892 308° West 353 406 13,500 -2,760 Descending Minneapolis Center
04:51PM 40.8886 -95.2519 316° Northwest 332 382 11,600 -2,580 Descending Minneapolis Center
04:52PM 40.9314 -95.3239 308° West 325 374 10,000 -1,620 Descending Minneapolis Center
04:53PM 40.9578 -95.3861 299° West 313 360 9,200 -1,440 Descending Minneapolis Center
04:54PM 41.0019 -95.4589 309° West 277 319 7,600 -1,260 Descending Minneapolis Center
04:55PM 41.0467 -95.5317 309° West 263 303 6,600 -1,020 Descending Minneapolis Center
04:56PM 41.0919 -95.6064 309° West 259 298 5,600 -1,020 Descending Minneapolis Center
04:57PM 41.1375 -95.6822 309° West 260 299 4,600 -1,020 Descending Minneapolis Center
04:58PM 41.1831 -95.7578 309° West 262 302 3,500 -1,080 Descending Minneapolis Center